sensor_id;sensor_type;location;lat;lon;timestamp;P1;P2;P0
28647;PMS5003;17137;51.494;-0.262;2023-05-14T00:00:22;8;5;
28647;PMS5003;17137;51.494;-0.262;2023-05-14T00:00:53;8;5;
28647;PMS5003;17137;51.494;-0.262;2023-05-14T00:01:23;8;5;
28647;PMS5003;17137;51.494;-0.262;2023-05-14T00:01:53;8;5;
28647;PMS5003;17137;51.494;-0.262;2023-05-14T00:02:23;7;4;
28647;PMS5003;17137;51.494;-0.262;2023-05-14T00:02:54;7;4;
28647;PMS5003;17137;51.494;-0.262;2023-05-14T00:03:24;7;4;
28647;PMS5003;17137;51.494;-0.262;2023-05-14T00:03:54;8;5;
28647;PMS5003;17137;51.494;-0.262;2023-05-14T00:04:24;8;5;
28647;PMS5003;17137;51.494;-0.262;2023-05-14T00:04:55;8;5;
28647;PMS5003;17137;51.494;-0.262;2023-05-14T00:05:25;9;4;
28647;PMS5003;17137;51.494;-0.262;2023-05-14T00:05:55;9;4;
28647;PMS5003;17137;51.494;-0.262;2023-05-14T00:06:26;9;4;
28647;PMS5003;17137;51.494;-0.262;2023-05-14T00:06:56;9;4;
28647;PMS5003;17137;51.494;-0.262;2023-05-14T00:07:26;9;4;
28647;PMS5003;17137;51.494;-0.262;2023-05-14T00:07:56;9;4;
28647;PMS5003;17137;51.494;-0.262;2023-05-14T00:08:27;9;4;
28647;PMS5003;17137;51.494;-0.262;2023-05-14T00:08:57;9;4;
28647;PMS5003;17137;51.494;-0.262;2023-05-14T00:09:27;9;4;
28647;PMS5003;17137;51.494;-0.262;2023-05-14T00:09:57;7;4;
28647;PMS5003;17137;51.494;-0.262;2023-05-14T00:10:28;7;4;
28647;PMS5003;17137;51.494;-0.262;2023-05-14T00:10:58;7;4;
28647;PMS5003;17137;51.494;-0.262;2023-05-14T00:11:28;7;4;
28647;PMS5003;17137;51.494;-0.262;2023-05-14T00:11:59;7;4;
28647;PMS5003;17137;51.494;-0.262;2023-05-14T00:12:29;7;4;
28647;PMS5003;17137;51.494;-0.262;2023-05-14T00:13:00;6;5;
28647;PMS5003;17137;51.494;-0.262;2023-05-14T00:13:30;6;6;
28647;PMS5003;17137;51.494;-0.262;2023-05-14T00:14:01;6;6;
28647;PMS5003;17137;51.494;-0.262;2023-05-14T00:14:31;6;6;
28647;PMS5003;17137;51.494;-0.262;2023-05-14T00:15:01;6;6;
28647;PMS5003;17137;51.494;-0.262;2023-05-14T00:15:32;5;5;
28647;PMS5003;17137;51.494;-0.262;2023-05-14T00:16:02;5;5;
28647;PMS5003;17137;51.494;-0.262;2023-05-14T00:16:33;5;5;
28647;PMS5003;17137;51.494;-0.262;2023-05-14T00:17:03;5;5;
28647;PMS5003;17137;51.494;-0.262;2023-05-14T00:17:34;5;5;
28647;PMS5003;17137;51.494;-0.262;2023-05-14T00:18:05;5;5;
28647;PMS5003;17137;51.494;-0.262;2023-05-14T00:18:35;5;5;
28647;PMS5003;17137;51.494;-0.262;2023-05-14T00:19:05;5;5;
28647;PMS5003;17137;51.494;-0.262;2023-05-14T00:19:35;5;5;
28647;PMS5003;17137;51.494;-0.262;2023-05-14T00:20:06;4;4;
28647;PMS5003;17137;51.494;-0.262;2023-05-14T00:20:37;4;4;
28647;PMS5003;17137;51.494;-0.262;2023-05-14T00:21:07;4;4;
28647;PMS5003;17137;51.494;-0.262;2023-05-14T00:21:38;6;5;
28647;PMS5003;17137;51.494;-0.262;2023-05-14T00:22:08;6;5;
28647;PMS5003;17137;51.494;-0.262;2023-05-14T00:22:39;6;5;
28647;PMS5003;17137;51.494;-0.262;2023-05-14T00:23:10;6;5;
28647;PMS5003;17137;51.494;-0.262;2023-05-14T00:23:40;6;5;
28647;PMS5003;17137;51.494;-0.262;2023-05-14T00:24:10;6;5;
28647;PMS5003;17137;51.494;-0.262;2023-05-14T00:24:41;6;5;
28647;PMS5003;17137;51.494;-0.262;2023-05-14T00:25:11;6;5;
28647;PMS5003;17137;51.494;-0.262;2023-05-14T00:25:41;6;5;
28647;PMS5003;17137;51.494;-0.262;2023-05-14T00:26:12;6;5;
28647;PMS5003;17137;51.494;-0.262;2023-05-14T00:26:42;5;4;
28647;PMS5003;17137;51.494;-0.262;2023-05-14T00:27:12;5;4;
28647;PMS5003;17137;51.494;-0.262;2023-05-14T00:27:43;5;4;
28647;PMS5003;17137;51.494;-0.262;2023-05-14T00:28:18;5;4;
28647;PMS5003;17137;51.494;-0.262;2023-05-14T00:28:49;5;4;
28647;PMS5003;17137;51.494;-0.262;2023-05-14T00:29:19;5;4;
28647;PMS5003;17137;51.494;-0.262;2023-05-14T00:29:49;7;6;
28647;PMS5003;17137;51.494;-0.262;2023-05-14T00:30:19;7;5;
28647;PMS5003;17137;51.494;-0.262;2023-05-14T00:30:50;7;5;
28647;PMS5003;17137;51.494;-0.262;2023-05-14T00:31:20;7;5;
28647;PMS5003;17137;51.494;-0.262;2023-05-14T00:31:50;6;5;
28647;PMS5003;17137;51.494;-0.262;2023-05-14T00:32:21;6;5;
28647;PMS5003;17137;51.494;-0.262;2023-05-14T00:32:52;6;5;
28647;PMS5003;17137;51.494;-0.262;2023-05-14T00:33:22;6;5;
28647;PMS5003;17137;51.494;-0.262;2023-05-14T00:33:53;6;5;
28647;PMS5003;17137;51.494;-0.262;2023-05-14T00:34:23;6;5;
28647;PMS5003;17137;51.494;-0.262;2023-05-14T00:34:53;7;5;
28647;PMS5003;17137;51.494;-0.262;2023-05-14T00:35:23;7;5;
28647;PMS5003;17137;51.494;-0.262;2023-05-14T00:35:54;7;5;
28647;PMS5003;17137;51.494;-0.262;2023-05-14T00:36:24;5;5;
28647;PMS5003;17137;51.494;-0.262;2023-05-14T00:36:54;5;5;
28647;PMS5003;17137;51.494;-0.262;2023-05-14T00:37:24;5;5;
28647;PMS5003;17137;51.494;-0.262;2023-05-14T00:37:55;7;4;
28647;PMS5003;17137;51.494;-0.262;2023-05-14T00:38:25;7;4;
28647;PMS5003;17137;51.494;-0.262;2023-05-14T00:38:55;7;4;
28647;PMS5003;17137;51.494;-0.262;2023-05-14T00:39:26;7;4;
28647;PMS5003;17137;51.494;-0.262;2023-05-14T00:39:56;7;4;
28647;PMS5003;17137;51.494;-0.262;2023-05-14T00:40:26;7;4;
28647;PMS5003;17137;51.494;-0.262;2023-05-14T00:40:57;7;4;
28647;PMS5003;17137;51.494;-0.262;2023-05-14T00:41:27;7;4;
28647;PMS5003;17137;51.494;-0.262;2023-05-14T00:41:57;8;5;
28647;PMS5003;17137;51.494;-0.262;2023-05-14T00:42:28;8;5;
28647;PMS5003;17137;51.494;-0.262;2023-05-14T00:42:58;8;5;
28647;PMS5003;17137;51.494;-0.262;2023-05-14T00:43:28;8;5;
28647;PMS5003;17137;51.494;-0.262;2023-05-14T00:43:58;8;5;
28647;PMS5003;17137;51.494;-0.262;2023-05-14T00:44:29;8;5;
28647;PMS5003;17137;51.494;-0.262;2023-05-14T00:44:59;9;5;
28647;PMS5003;17137;51.494;-0.262;2023-05-14T00:45:29;9;5;
28647;PMS5003;17137;51.494;-0.262;2023-05-14T00:46:00;7;7;
28647;PMS5003;17137;51.494;-0.262;2023-05-14T00:46:30;7;7;
28647;PMS5003;17137;51.494;-0.262;2023-05-14T00:47:00;7;7;
28647;PMS5003;17137;51.494;-0.262;2023-05-14T00:47:31;7;7;
28647;PMS5003;17137;51.494;-0.262;2023-05-14T00:48:02;7;7;
28647;PMS5003;17137;51.494;-0.262;2023-05-14T00:48:32;7;7;
28647;PMS5003;17137;51.494;-0.262;2023-05-14T00:49:02;7;7;
28647;PMS5003;17137;51.494;-0.262;2023-05-14T00:49:33;7;7;
28647;PMS5003;17137;51.494;-0.262;2023-05-14T00:50:04;7;7;
28647;PMS5003;17137;51.494;-0.262;2023-05-14T00:50:35;7;7;
28647;PMS5003;17137;51.494;-0.262;2023-05-14T00:51:06;7;7;
28647;PMS5003;17137;51.494;-0.262;2023-05-14T00:51:37;7;7;
28647;PMS5003;17137;51.494;-0.262;2023-05-14T00:52:08;7;7;
28647;PMS5003;17137;51.494;-0.262;2023-05-14T00:52:40;7;7;
28647;PMS5003;17137;51.494;-0.262;2023-05-14T00:53:10;6;6;
28647;PMS5003;17137;51.494;-0.262;2023-05-14T00:53:41;6;6;
28647;PMS5003;17137;51.494;-0.262;2023-05-14T00:54:11;4;4;
28647;PMS5003;17137;51.494;-0.262;2023-05-14T00:54:42;4;4;
28647;PMS5003;17137;51.494;-0.262;2023-05-14T00:55:15;4;4;
28647;PMS5003;17137;51.494;-0.262;2023-05-14T00:55:45;4;4;
28647;PMS5003;17137;51.494;-0.262;2023-05-14T00:56:17;4;4;
28647;PMS5003;17137;51.494;-0.262;2023-05-14T00:56:48;4;4;
28647;PMS5003;17137;51.494;-0.262;2023-05-14T00:57:19;4;4;
28647;PMS5003;17137;51.494;-0.262;2023-05-14T00:57:54;4;4;
28647;PMS5003;17137;51.494;-0.262;2023-05-14T00:58:27;4;4;
28647;PMS5003;17137;51.494;-0.262;2023-05-14T00:58:57;4;4;
28647;PMS5003;17137;51.494;-0.262;2023-05-14T00:59:28;4;4;
28647;PMS5003;17137;51.494;-0.262;2023-05-14T00:59:58;4;4;
28647;PMS5003;17137;51.494;-0.262;2023-05-14T01:00:29;4;4;
28647;PMS5003;17137;51.494;-0.262;2023-05-14T01:00:59;4;4;
28647;PMS5003;17137;51.494;-0.262;2023-05-14T01:01:30;4;4;
28647;PMS5003;17137;51.494;-0.262;2023-05-14T01:02:00;4;4;
28647;PMS5003;17137;51.494;-0.262;2023-05-14T01:02:30;5;5;
28647;PMS5003;17137;51.494;-0.262;2023-05-14T01:03:01;6;6;
28647;PMS5003;17137;51.494;-0.262;2023-05-14T01:03:32;6;6;
28647;PMS5003;17137;51.494;-0.262;2023-05-14T01:04:03;6;6;
28647;PMS5003;17137;51.494;-0.262;2023-05-14T01:04:34;6;6;
28647;PMS5003;17137;51.494;-0.262;2023-05-14T01:05:05;6;6;
28647;PMS5003;17137;51.494;-0.262;2023-05-14T01:05:40;6;6;
28647;PMS5003;17137;51.494;-0.262;2023-05-14T01:06:17;6;6;
28647;PMS5003;17137;51.494;-0.262;2023-05-14T01:06:57;6;6;
28647;PMS5003;17137;51.494;-0.262;2023-05-14T01:07:38;6;6;
28647;PMS5003;17137;51.494;-0.262;2023-05-14T01:08:17;5;5;
28647;PMS5003;17137;51.494;-0.262;2023-05-14T01:08:57;5;5;
28647;PMS5003;17137;51.494;-0.262;2023-05-14T01:09:34;5;5;
28647;PMS5003;17137;51.494;-0.262;2023-05-14T01:10:12;5;5;
28647;PMS5003;17137;51.494;-0.262;2023-05-14T01:10:51;5;5;
28647;PMS5003;17137;51.494;-0.262;2023-05-14T01:11:31;5;5;
28647;PMS5003;17137;51.494;-0.262;2023-05-14T01:12:10;4;4;
28647;PMS5003;17137;51.494;-0.262;2023-05-14T01:12:50;4;4;
28647;PMS5003;17137;51.494;-0.262;2023-05-14T01:13:32;4;4;
28647;PMS5003;17137;51.494;-0.262;2023-05-14T01:14:11;4;4;
28647;PMS5003;17137;51.494;-0.262;2023-05-14T01:14:51;4;4;
28647;PMS5003;17137;51.494;-0.262;2023-05-14T01:15:27;4;4;
28647;PMS5003;17137;51.494;-0.262;2023-05-14T01:16:00;4;4;
28647;PMS5003;17137;51.494;-0.262;2023-05-14T01:16:32;4;4;
28647;PMS5003;17137;51.494;-0.262;2023-05-14T01:17:05;4;4;
28647;PMS5003;17137;51.494;-0.262;2023-05-14T01:17:40;4;4;
28647;PMS5003;17137;51.494;-0.262;2023-05-14T01:18:16;4;4;
28647;PMS5003;17137;51.494;-0.262;2023-05-14T01:18:47;4;4;
28647;PMS5003;17137;51.494;-0.262;2023-05-14T01:19:21;4;4;
28647;PMS5003;17137;51.494;-0.262;2023-05-14T01:19:58;5;5;
28647;PMS5003;17137;51.494;-0.262;2023-05-14T01:20:28;5;5;
28647;PMS5003;17137;51.494;-0.262;2023-05-14T01:20:59;5;5;
28647;PMS5003;17137;51.494;-0.262;2023-05-14T01:21:35;4;4;
28647;PMS5003;17137;51.494;-0.262;2023-05-14T01:22:07;4;4;
28647;PMS5003;17137;51.494;-0.262;2023-05-14T01:22:37;3;3;
28647;PMS5003;17137;51.494;-0.262;2023-05-14T01:23:08;3;3;
28647;PMS5003;17137;51.494;-0.262;2023-05-14T01:23:38;3;3;
28647;PMS5003;17137;51.494;-0.262;2023-05-14T01:24:09;3;3;
28647;PMS5003;17137;51.494;-0.262;2023-05-14T01:24:39;3;3;
28647;PMS5003;17137;51.494;-0.262;2023-05-14T01:25:10;3;3;
28647;PMS5003;17137;51.494;-0.262;2023-05-14T01:25:40;3;3;
28647;PMS5003;17137;51.494;-0.262;2023-05-14T01:26:10;3;3;
28647;PMS5003;17137;51.494;-0.262;2023-05-14T01:26:40;3;3;
28647;PMS5003;17137;51.494;-0.262;2023-05-14T01:27:12;3;3;
28647;PMS5003;17137;51.494;-0.262;2023-05-14T01:27:55;3;3;
28647;PMS5003;17137;51.494;-0.262;2023-05-14T01:28:32;3;3;
28647;PMS5003;17137;51.494;-0.262;2023-05-14T01:29:07;3;3;
28647;PMS5003;17137;51.494;-0.262;2023-05-14T01:29:48;3;3;
28647;PMS5003;17137;51.494;-0.262;2023-05-14T01:30:25;3;3;
28647;PMS5003;17137;51.494;-0.262;2023-05-14T01:31:00;3;3;
28647;PMS5003;17137;51.494;-0.262;2023-05-14T01:31:35;3;3;
28647;PMS5003;17137;51.494;-0.262;2023-05-14T01:32:09;2;2;
28647;PMS5003;17137;51.494;-0.262;2023-05-14T01:32:41;2;2;
28647;PMS5003;17137;51.494;-0.262;2023-05-14T01:33:16;2;2;
28647;PMS5003;17137;51.494;-0.262;2023-05-14T01:33:48;4;3;
28647;PMS5003;17137;51.494;-0.262;2023-05-14T01:34:19;4;3;
28647;PMS5003;17137;51.494;-0.262;2023-05-14T01:34:52;4;3;
28647;PMS5003;17137;51.494;-0.262;2023-05-14T01:35:26;4;3;
28647;PMS5003;17137;51.494;-0.262;2023-05-14T01:35:58;4;3;
28647;PMS5003;17137;51.494;-0.262;2023-05-14T01:36:29;4;3;
28647;PMS5003;17137;51.494;-0.262;2023-05-14T01:36:59;4;3;
28647;PMS5003;17137;51.494;-0.262;2023-05-14T01:37:31;4;3;
28647;PMS5003;17137;51.494;-0.262;2023-05-14T01:38:02;4;3;
28647;PMS5003;17137;51.494;-0.262;2023-05-14T01:38:35;4;3;
28647;PMS5003;17137;51.494;-0.262;2023-05-14T01:39:07;4;3;
28647;PMS5003;17137;51.494;-0.262;2023-05-14T01:39:38;4;3;
28647;PMS5003;17137;51.494;-0.262;2023-05-14T01:40:11;4;3;
28647;PMS5003;17137;51.494;-0.262;2023-05-14T01:40:41;4;3;
28647;PMS5003;17137;51.494;-0.262;2023-05-14T01:41:13;4;3;
28647;PMS5003;17137;51.494;-0.262;2023-05-14T01:41:45;4;3;
28647;PMS5003;17137;51.494;-0.262;2023-05-14T01:42:15;4;3;
28647;PMS5003;17137;51.494;-0.262;2023-05-14T01:42:46;4;4;
28647;PMS5003;17137;51.494;-0.262;2023-05-14T01:43:17;4;4;
28647;PMS5003;17137;51.494;-0.262;2023-05-14T01:43:48;4;4;
28647;PMS5003;17137;51.494;-0.262;2023-05-14T01:44:18;5;4;
28647;PMS5003;17137;51.494;-0.262;2023-05-14T01:44:50;5;4;
28647;PMS5003;17137;51.494;-0.262;2023-05-14T01:45:20;5;4;
28647;PMS5003;17137;51.494;-0.262;2023-05-14T01:45:51;5;4;
28647;PMS5003;17137;51.494;-0.262;2023-05-14T01:46:21;5;4;
28647;PMS5003;17137;51.494;-0.262;2023-05-14T01:46:51;5;4;
28647;PMS5003;17137;51.494;-0.262;2023-05-14T01:47:22;4;4;
28647;PMS5003;17137;51.494;-0.262;2023-05-14T01:47:52;4;4;
28647;PMS5003;17137;51.494;-0.262;2023-05-14T01:48:22;4;4;
28647;PMS5003;17137;51.494;-0.262;2023-05-14T01:48:53;5;5;
28647;PMS5003;17137;51.494;-0.262;2023-05-14T01:49:23;5;5;
28647;PMS5003;17137;51.494;-0.262;2023-05-14T01:49:53;5;5;
28647;PMS5003;17137;51.494;-0.262;2023-05-14T01:50:23;4;4;
28647;PMS5003;17137;51.494;-0.262;2023-05-14T01:50:54;4;4;
28647;PMS5003;17137;51.494;-0.262;2023-05-14T01:51:24;4;4;
28647;PMS5003;17137;51.494;-0.262;2023-05-14T01:51:55;4;4;
28647;PMS5003;17137;51.494;-0.262;2023-05-14T01:52:25;4;4;
28647;PMS5003;17137;51.494;-0.262;2023-05-14T01:52:55;4;4;
28647;PMS5003;17137;51.494;-0.262;2023-05-14T01:53:25;4;4;
28647;PMS5003;17137;51.494;-0.262;2023-05-14T01:53:56;4;4;
28647;PMS5003;17137;51.494;-0.262;2023-05-14T01:54:26;4;4;
28647;PMS5003;17137;51.494;-0.262;2023-05-14T01:54:56;4;4;
28647;PMS5003;17137;51.494;-0.262;2023-05-14T01:55:27;5;4;
28647;PMS5003;17137;51.494;-0.262;2023-05-14T01:55:57;5;4;
28647;PMS5003;17137;51.494;-0.262;2023-05-14T01:56:27;5;4;
28647;PMS5003;17137;51.494;-0.262;2023-05-14T01:56:57;4;3;
28647;PMS5003;17137;51.494;-0.262;2023-05-14T01:57:28;4;3;
28647;PMS5003;17137;51.494;-0.262;2023-05-14T01:57:58;4;3;
28647;PMS5003;17137;51.494;-0.262;2023-05-14T01:58:28;4;3;
28647;PMS5003;17137;51.494;-0.262;2023-05-14T01:58:58;4;3;
28647;PMS5003;17137;51.494;-0.262;2023-05-14T01:59:29;4;3;
28647;PMS5003;17137;51.494;-0.262;2023-05-14T01:59:59;5;4;
28647;PMS5003;17137;51.494;-0.262;2023-05-14T02:00:30;5;4;
28647;PMS5003;17137;51.494;-0.262;2023-05-14T02:01:00;5;4;
28647;PMS5003;17137;51.494;-0.262;2023-05-14T02:01:30;6;5;
28647;PMS5003;17137;51.494;-0.262;2023-05-14T02:02:01;6;5;
28647;PMS5003;17137;51.494;-0.262;2023-05-14T02:02:31;6;5;
28647;PMS5003;17137;51.494;-0.262;2023-05-14T02:03:01;6;5;
28647;PMS5003;17137;51.494;-0.262;2023-05-14T02:03:32;8;7;
28647;PMS5003;17137;51.494;-0.262;2023-05-14T02:04:02;8;7;
28647;PMS5003;17137;51.494;-0.262;2023-05-14T02:04:32;8;7;
28647;PMS5003;17137;51.494;-0.262;2023-05-14T02:05:03;8;7;
28647;PMS5003;17137;51.494;-0.262;2023-05-14T02:05:34;8;7;
28647;PMS5003;17137;51.494;-0.262;2023-05-14T02:06:04;8;7;
28647;PMS5003;17137;51.494;-0.262;2023-05-14T02:06:35;8;7;
28647;PMS5003;17137;51.494;-0.262;2023-05-14T02:07:05;8;7;
28647;PMS5003;17137;51.494;-0.262;2023-05-14T02:07:35;8;7;
28647;PMS5003;17137;51.494;-0.262;2023-05-14T02:08:05;7;6;
28647;PMS5003;17137;51.494;-0.262;2023-05-14T02:08:36;7;6;
28647;PMS5003;17137;51.494;-0.262;2023-05-14T02:09:06;7;6;
28647;PMS5003;17137;51.494;-0.262;2023-05-14T02:09:36;8;7;
28647;PMS5003;17137;51.494;-0.262;2023-05-14T02:10:07;8;7;
28647;PMS5003;17137;51.494;-0.262;2023-05-14T02:10:38;8;7;
28647;PMS5003;17137;51.494;-0.262;2023-05-14T02:11:09;8;7;
28647;PMS5003;17137;51.494;-0.262;2023-05-14T02:11:39;11;9;
28647;PMS5003;17137;51.494;-0.262;2023-05-14T02:12:09;12;9;
28647;PMS5003;17137;51.494;-0.262;2023-05-14T02:12:39;12;9;
28647;PMS5003;17137;51.494;-0.262;2023-05-14T02:13:10;12;9;
28647;PMS5003;17137;51.494;-0.262;2023-05-14T02:13:40;12;9;
28647;PMS5003;17137;51.494;-0.262;2023-05-14T02:14:10;12;9;
28647;PMS5003;17137;51.494;-0.262;2023-05-14T02:14:40;12;9;
28647;PMS5003;17137;51.494;-0.262;2023-05-14T02:15:11;15;10;
28647;PMS5003;17137;51.494;-0.262;2023-05-14T02:15:41;15;10;
28647;PMS5003;17137;51.494;-0.262;2023-05-14T02:16:11;15;10;
28647;PMS5003;17137;51.494;-0.262;2023-05-14T02:16:42;14;9;
28647;PMS5003;17137;51.494;-0.262;2023-05-14T02:17:12;14;9;
28647;PMS5003;17137;51.494;-0.262;2023-05-14T02:17:42;14;9;
28647;PMS5003;17137;51.494;-0.262;2023-05-14T02:18:13;14;9;
28647;PMS5003;17137;51.494;-0.262;2023-05-14T02:18:43;14;9;
28647;PMS5003;17137;51.494;-0.262;2023-05-14T02:19:13;14;9;
28647;PMS5003;17137;51.494;-0.262;2023-05-14T02:19:43;9;9;
28647;PMS5003;17137;51.494;-0.262;2023-05-14T02:20:14;9;9;
28647;PMS5003;17137;51.494;-0.262;2023-05-14T02:20:45;8;8;
28647;PMS5003;17137;51.494;-0.262;2023-05-14T02:21:15;8;8;
28647;PMS5003;17137;51.494;-0.262;2023-05-14T02:21:46;8;8;
28647;PMS5003;17137;51.494;-0.262;2023-05-14T02:22:17;8;8;
28647;PMS5003;17137;51.494;-0.262;2023-05-14T02:22:47;8;8;
28647;PMS5003;17137;51.494;-0.262;2023-05-14T02:23:17;8;8;
28647;PMS5003;17137;51.494;-0.262;2023-05-14T02:23:47;8;8;
28647;PMS5003;17137;51.494;-0.262;2023-05-14T02:24:17;8;8;
28647;PMS5003;17137;51.494;-0.262;2023-05-14T02:24:48;8;8;
28647;PMS5003;17137;51.494;-0.262;2023-05-14T02:25:18;7;7;
28647;PMS5003;17137;51.494;-0.262;2023-05-14T02:25:48;7;7;
28647;PMS5003;17137;51.494;-0.262;2023-05-14T02:26:19;7;7;
28647;PMS5003;17137;51.494;-0.262;2023-05-14T02:26:49;8;8;
28647;PMS5003;17137;51.494;-0.262;2023-05-14T02:27:19;8;8;
28647;PMS5003;17137;51.494;-0.262;2023-05-14T02:27:49;12;11;
28647;PMS5003;17137;51.494;-0.262;2023-05-14T02:28:19;12;11;
28647;PMS5003;17137;51.494;-0.262;2023-05-14T02:28:50;12;11;
28647;PMS5003;17137;51.494;-0.262;2023-05-14T02:29:20;12;10;
28647;PMS5003;17137;51.494;-0.262;2023-05-14T02:29:51;12;10;
28647;PMS5003;17137;51.494;-0.262;2023-05-14T02:30:21;12;10;
28647;PMS5003;17137;51.494;-0.262;2023-05-14T02:30:51;12;11;
28647;PMS5003;17137;51.494;-0.262;2023-05-14T02:31:26;12;11;
28647;PMS5003;17137;51.494;-0.262;2023-05-14T02:31:56;12;11;
28647;PMS5003;17137;51.494;-0.262;2023-05-14T02:32:27;12;10;
28647;PMS5003;17137;51.494;-0.262;2023-05-14T02:32:57;12;10;
28647;PMS5003;17137;51.494;-0.262;2023-05-14T02:33:27;12;10;
28647;PMS5003;17137;51.494;-0.262;2023-05-14T02:33:57;11;10;
28647;PMS5003;17137;51.494;-0.262;2023-05-14T02:34:29;11;10;
28647;PMS5003;17137;51.494;-0.262;2023-05-14T02:34:59;11;10;
28647;PMS5003;17137;51.494;-0.262;2023-05-14T02:35:29;12;10;
28647;PMS5003;17137;51.494;-0.262;2023-05-14T02:36:00;14;12;
28647;PMS5003;17137;51.494;-0.262;2023-05-14T02:36:30;14;12;
28647;PMS5003;17137;51.494;-0.262;2023-05-14T02:37:00;14;12;
28647;PMS5003;17137;51.494;-0.262;2023-05-14T02:37:30;14;12;
28647;PMS5003;17137;51.494;-0.262;2023-05-14T02:38:01;14;12;
28647;PMS5003;17137;51.494;-0.262;2023-05-14T02:38:32;14;12;
28647;PMS5003;17137;51.494;-0.262;2023-05-14T02:39:02;14;12;
28647;PMS5003;17137;51.494;-0.262;2023-05-14T02:39:32;14;12;
28647;PMS5003;17137;51.494;-0.262;2023-05-14T02:40:03;14;12;
28647;PMS5003;17137;51.494;-0.262;2023-05-14T02:40:35;14;12;
28647;PMS5003;17137;51.494;-0.262;2023-05-14T02:41:05;14;12;
28647;PMS5003;17137;51.494;-0.262;2023-05-14T02:41:36;14;12;
28647;PMS5003;17137;51.494;-0.262;2023-05-14T02:42:06;14;12;
28647;PMS5003;17137;51.494;-0.262;2023-05-14T02:42:36;14;12;
28647;PMS5003;17137;51.494;-0.262;2023-05-14T02:43:06;16;13;
28647;PMS5003;17137;51.494;-0.262;2023-05-14T02:43:37;16;13;
28647;PMS5003;17137;51.494;-0.262;2023-05-14T02:44:07;15;14;
28647;PMS5003;17137;51.494;-0.262;2023-05-14T02:44:37;15;14;
28647;PMS5003;17137;51.494;-0.262;2023-05-14T02:45:07;15;14;
28647;PMS5003;17137;51.494;-0.262;2023-05-14T02:45:38;17;15;
28647;PMS5003;17137;51.494;-0.262;2023-05-14T02:46:09;17;15;
28647;PMS5003;17137;51.494;-0.262;2023-05-14T02:46:39;17;15;
28647;PMS5003;17137;51.494;-0.262;2023-05-14T02:47:14;17;15;
28647;PMS5003;17137;51.494;-0.262;2023-05-14T02:47:44;17;15;
28647;PMS5003;17137;51.494;-0.262;2023-05-14T02:48:15;16;15;
28647;PMS5003;17137;51.494;-0.262;2023-05-14T02:48:45;18;16;
28647;PMS5003;17137;51.494;-0.262;2023-05-14T02:49:15;18;18;
28647;PMS5003;17137;51.494;-0.262;2023-05-14T02:49:45;21;19;
28647;PMS5003;17137;51.494;-0.262;2023-05-14T02:50:16;21;18;
28647;PMS5003;17137;51.494;-0.262;2023-05-14T02:50:46;22;18;
28647;PMS5003;17137;51.494;-0.262;2023-05-14T02:51:18;23;19;
28647;PMS5003;17137;51.494;-0.262;2023-05-14T02:52:17;14;14;
28647;PMS5003;17137;51.494;-0.262;2023-05-14T02:52:48;17;15;
28647;PMS5003;17137;51.494;-0.262;2023-05-14T02:53:18;17;15;
28647;PMS5003;17137;51.494;-0.262;2023-05-14T02:53:48;17;15;
28647;PMS5003;17137;51.494;-0.262;2023-05-14T02:54:18;17;15;
28647;PMS5003;17137;51.494;-0.262;2023-05-14T02:54:49;17;15;
28647;PMS5003;17137;51.494;-0.262;2023-05-14T02:55:19;17;15;
28647;PMS5003;17137;51.494;-0.262;2023-05-14T02:55:49;19;18;
28647;PMS5003;17137;51.494;-0.262;2023-05-14T02:56:20;19;18;
28647;PMS5003;17137;51.494;-0.262;2023-05-14T02:56:50;19;17;
28647;PMS5003;17137;51.494;-0.262;2023-05-14T02:57:20;19;16;
28647;PMS5003;17137;51.494;-0.262;2023-05-14T02:57:51;19;16;
28647;PMS5003;17137;51.494;-0.262;2023-05-14T02:58:21;19;17;
28647;PMS5003;17137;51.494;-0.262;2023-05-14T02:58:51;22;19;
28647;PMS5003;17137;51.494;-0.262;2023-05-14T02:59:22;22;19;
28647;PMS5003;17137;51.494;-0.262;2023-05-14T02:59:53;25;23;
28647;PMS5003;17137;51.494;-0.262;2023-05-14T03:00:23;25;23;
28647;PMS5003;17137;51.494;-0.262;2023-05-14T03:00:53;25;23;
28647;PMS5003;17137;51.494;-0.262;2023-05-14T03:01:24;23;20;
28647;PMS5003;17137;51.494;-0.262;2023-05-14T03:01:54;23;20;
28647;PMS5003;17137;51.494;-0.262;2023-05-14T03:02:24;23;20;
28647;PMS5003;17137;51.494;-0.262;2023-05-14T03:02:54;21;19;
28647;PMS5003;17137;51.494;-0.262;2023-05-14T03:03:25;21;19;
28647;PMS5003;17137;51.494;-0.262;2023-05-14T03:03:55;21;19;
28647;PMS5003;17137;51.494;-0.262;2023-05-14T03:04:25;21;20;
28647;PMS5003;17137;51.494;-0.262;2023-05-14T03:04:56;23;20;
28647;PMS5003;17137;51.494;-0.262;2023-05-14T03:05:26;23;21;
28647;PMS5003;17137;51.494;-0.262;2023-05-14T03:05:56;24;21;
28647;PMS5003;17137;51.494;-0.262;2023-05-14T03:06:26;24;21;
28647;PMS5003;17137;51.494;-0.262;2023-05-14T03:06:57;25;24;
28647;PMS5003;17137;51.494;-0.262;2023-05-14T03:07:27;26;25;
28647;PMS5003;17137;51.494;-0.262;2023-05-14T03:07:57;22;21;
28647;PMS5003;17137;51.494;-0.262;2023-05-14T03:08:28;24;21;
28647;PMS5003;17137;51.494;-0.262;2023-05-14T03:08:58;24;21;
28647;PMS5003;17137;51.494;-0.262;2023-05-14T03:09:28;24;21;
28647;PMS5003;17137;51.494;-0.262;2023-05-14T03:09:58;25;22;
28647;PMS5003;17137;51.494;-0.262;2023-05-14T03:10:28;25;22;
28647;PMS5003;17137;51.494;-0.262;2023-05-14T03:10:59;25;22;
28647;PMS5003;17137;51.494;-0.262;2023-05-14T03:11:29;26;22;
28647;PMS5003;17137;51.494;-0.262;2023-05-14T03:11:59;26;22;
28647;PMS5003;17137;51.494;-0.262;2023-05-14T03:12:30;26;22;
28647;PMS5003;17137;51.494;-0.262;2023-05-14T03:13:00;24;21;
28647;PMS5003;17137;51.494;-0.262;2023-05-14T03:13:30;24;21;
28647;PMS5003;17137;51.494;-0.262;2023-05-14T03:14:00;24;21;
28647;PMS5003;17137;51.494;-0.262;2023-05-14T03:14:31;24;21;
28647;PMS5003;17137;51.494;-0.262;2023-05-14T03:15:01;25;22;
28647;PMS5003;17137;51.494;-0.262;2023-05-14T03:15:31;24;22;
28647;PMS5003;17137;51.494;-0.262;2023-05-14T03:16:02;27;24;
28647;PMS5003;17137;51.494;-0.262;2023-05-14T03:16:32;30;27;
28647;PMS5003;17137;51.494;-0.262;2023-05-14T03:17:02;31;27;
28647;PMS5003;17137;51.494;-0.262;2023-05-14T03:17:33;30;26;
28647;PMS5003;17137;51.494;-0.262;2023-05-14T03:18:03;30;26;
28647;PMS5003;17137;51.494;-0.262;2023-05-14T03:18:33;30;26;
28647;PMS5003;17137;51.494;-0.262;2023-05-14T03:19:04;30;26;
28647;PMS5003;17137;51.494;-0.262;2023-05-14T03:19:34;30;26;
28647;PMS5003;17137;51.494;-0.262;2023-05-14T03:20:04;30;25;
28647;PMS5003;17137;51.494;-0.262;2023-05-14T03:20:35;30;25;
28647;PMS5003;17137;51.494;-0.262;2023-05-14T03:21:06;30;25;
28647;PMS5003;17137;51.494;-0.262;2023-05-14T03:21:36;30;24;
28647;PMS5003;17137;51.494;-0.262;2023-05-14T03:22:06;30;24;
28647;PMS5003;17137;51.494;-0.262;2023-05-14T03:22:37;30;24;
28647;PMS5003;17137;51.494;-0.262;2023-05-14T03:23:07;29;23;
28647;PMS5003;17137;51.494;-0.262;2023-05-14T03:23:37;29;23;
28647;PMS5003;17137;51.494;-0.262;2023-05-14T03:24:07;19;17;
28647;PMS5003;17137;51.494;-0.262;2023-05-14T03:24:38;18;15;
28647;PMS5003;17137;51.494;-0.262;2023-05-14T03:25:09;18;15;
28647;PMS5003;17137;51.494;-0.262;2023-05-14T03:25:39;18;15;
28647;PMS5003;17137;51.494;-0.262;2023-05-14T03:26:09;19;15;
28647;PMS5003;17137;51.494;-0.262;2023-05-14T03:26:40;19;15;
28647;PMS5003;17137;51.494;-0.262;2023-05-14T03:27:10;19;15;
28647;PMS5003;17137;51.494;-0.262;2023-05-14T03:27:40;18;16;
28647;PMS5003;17137;51.494;-0.262;2023-05-14T03:28:10;18;16;